Overton, Nevada Weather observations

Data are for observation ending at time listed.
 Day   Time    Ave.   Ave.  Ave.  Vector   Max.   Stn.    Total    Solar   Ave.  
  of    of     Air    Rel.  Wind   Wind    Wind   Baro.  Precip.   Rad.    Soil  
Year   Day     Temp.  Hum.  Speed  Dir.    Gust   Pres.                    Temp. 
2026   (PST)    F      %     mph   deg.    mph     mb.     in.     W/m2     F   
------------------------------------------------------------------------------
 242   15:00  102.9    12    6.1   194     12.7   963.1    0.00     331    109.9
 242   15:10  103.2    12    6.7   199     13.5   963.0    0.00     327    109.9
 242   15:20  103.5    12    7.1   186     15.4   962.8    0.00     322    109.7
 242   15:30  104.0    12    6.3   165     13.9   962.8    0.00     446    109.8
 242   15:40  103.7    12    9.2   183     17.2   962.9    0.00     317    109.5
 242   15:50  103.9    12    9.8   179     16.7   962.9    0.00     302    109.3
 242   16:00  103.7    11    6.4   188     13.7   962.9    0.00     176    109.1
 242   16:10  103.8    11    6.0   242     12.1   962.8    0.00     202    108.4
 242   16:20  103.6    11    7.8   244     14.8   962.6    0.00     338    108.1
 242   16:30  103.7    11   10.4   234     20.2   962.5    0.00     291    108.1
 242   16:40  103.3    11    8.5   234     17.5   962.5    0.00     177    107.6
 242   16:50  102.9    11    7.2   229     15.0   962.5    0.00     186    107.2
 242   17:00  103.2    11    8.1   237     13.8   962.4    0.00     127    106.8
 242   17:10  102.7    11    8.3   233     14.5   962.3    0.00      90    106.3
 242   17:20  102.2    11    9.1   242     14.2   962.2    0.00      77    105.7
 242   17:30  102.1    11    6.3   229     10.7   962.1    0.00      65    105.4
 242   17:40  101.7    11    5.8   220      9.4   962.1    0.00      45    104.9
 242   17:50  101.3    11    6.4   233     12.0   962.0    0.00      29    104.3
 242   18:00  100.9    11    5.9   228     11.6   962.0    0.00      17    103.8
 242   18:10  100.5    11    4.8   224      8.0   962.0    0.00       6    103.2
 242   18:20  100.3    11    5.1   221      9.9   962.0    0.00       3    102.8
 242   18:30   99.8    11    3.4   223      6.6   962.0    0.00       1    102.2
 242   18:40   99.3    11    3.6   233      6.6   961.9    0.00       0    101.8
 242   18:50   99.0    11    4.3   234      8.2   961.9    0.00       0    101.4
 242   19:00   98.7    12    3.4   230      6.6   962.0    0.00       0    100.9
 242   19:10   98.1    12    3.5   230      6.9   962.0    0.00       0    100.5
 242   19:20   97.8    12    3.1   244      6.9   962.1    0.00       0    100.1
 242   19:30   97.7    12    1.8   234      6.0   962.2    0.00       0    99.8
 242   19:40   94.4    14    2.1    73      4.2   962.5    0.00       0    98.8
 242   19:50   91.7    16    2.0     8      3.5   962.5    0.00       0    97.6
 242   20:00   89.9    18    0.7   334      2.0   962.5    0.00       0    97.1
 242   20:10   89.1    18    2.5    25      5.0   962.5    0.00       0    96.4
 242   20:20   89.3    17    1.3   347      3.4   962.4    0.00       0    96.4
 242   20:30   90.7    16    1.2   241      3.8   962.4    0.00       0    96.4
 242   20:40   90.2    17    1.9   160      3.1   962.4    0.00       0    96.2
 242   20:50   89.1    18    1.1   149      2.1   962.5    0.00       0    95.4
 242   21:00   87.1    20    1.3   146      2.9   962.5    0.00       0    94.7
 242   21:10   87.3    19    3.0    92      7.7   962.3    0.00       0    94.4
 242   21:20   88.2    18    1.5    71      3.9   962.3    0.00       0    94.3
 242   21:30   85.8    20    3.0   354      5.5   962.2    0.00       0    93.2
 242   21:40   84.7    20    3.0   340      4.7   962.2    0.00       0    92.8
 242   21:50   85.0    20    1.4   341      3.6   962.3    0.00       0    92.8
 242   22:00   85.4    19    2.2   185      3.9   962.3    0.00       0    92.9
 242   22:10   86.6    18    1.8   143      3.6   962.2    0.00       0    92.9
 242   22:20   87.0    18    1.3   128      3.1   962.3    0.00       0    92.3
 242   22:30   82.9    23    2.2     2      3.1   962.3    0.00       0    90.9
 242   22:40   82.4    24    1.5    54      2.4   962.3    0.00       0    91.1
 242   22:50   81.4    24    2.0   317      3.9   962.2    0.00       0    90.2
 242   23:00   79.2    28    1.3   358      3.4   962.2    0.00       0    89.3
 242   23:10   79.1    28    1.4   322      2.5   962.1    0.00       0    89.3
 242   23:20   80.7    28    1.0   148      2.3   962.1    0.00       0    90.0
 242   23:30   82.8    29    1.2   224      2.8   962.1    0.00       0    90.3
 242   23:40   82.5    28    1.6   244      3.4   962.1    0.00       0    89.5
 242   23:50   78.8    33    2.2   347      3.7   962.1    0.00       0    88.4
 243    0:00   77.8    32    2.2   340      3.5   962.2    0.00       0    88.3
 243    0:10   79.8    29    1.6   290      3.8   962.1    0.00       0    88.7
 243    0:20   78.5    30    3.3   345      4.7   962.1    0.00       0    87.6
 243    0:30   78.3    29    2.5   312      4.3   962.2    0.00       0    87.8
 243    0:40   79.3    28    1.1   266      2.7   962.1    0.00       0    88.2
 243    0:50   79.9    26    1.9   288      3.8   962.1    0.00       0    88.0
 243    1:00   79.5    26    3.8   300      5.7   962.1    0.00       0    87.6
 243    1:10   79.1    26    3.2   305      5.2   962.1    0.00       0    87.3
 243    1:20   79.1    26    2.0   293      3.7   962.3    0.00       0    87.3
 243    1:30   80.0    24    1.8   299      3.9   962.4    0.00       0    87.5
 243    1:40   79.6    25    1.4   311      2.9   962.4    0.00       0    87.0
 243    1:50   78.7    26    0.7   311      2.2   962.5    0.00       0    87.0
 243    2:00   78.7    26    1.9    18      3.4   962.6    0.00       0    86.7
 243    2:10   79.2    26    1.6   339      3.2   962.7    0.00       0    86.7
 243    2:20   79.7    26    1.8   291      4.5   962.7    0.00       0    87.0
 243    2:30   80.2    26    2.0   267      4.9   962.8    0.00       0    87.0
 243    2:40   79.9    26    1.6   286      3.5   962.8    0.00       0    86.6
 243    2:50   78.8    27    2.5   302      4.2   962.8    0.00       0    86.2
 243    3:00   79.3    27    0.9   268      2.3   962.8    0.00       0    86.6
 243    3:10   79.0    29    2.4    27      3.7   962.9    0.00       0    86.1
 243    3:20   77.8    31    2.3   355      5.6   962.9    0.00       0    85.9
 243    3:30   79.2    30    1.8    19      5.1   962.8    0.00       0    86.1
 243    3:40   79.4    30    1.0   291      2.3   962.7    0.00       0    86.0
 243    3:50   78.5    30    1.8   299      3.2   962.8    0.00       0    85.6
 243    4:00   78.2    31    1.8   293      4.2   962.7    0.00       0    85.7
 243    4:10   77.9    32    1.8   330      2.7   962.7    0.00       0    85.1
 243    4:20   76.0    36    3.2   355      3.9   962.9    0.00       0    84.7
 243    4:30   76.4    35    1.7   341      3.1   962.9    0.00       0    84.8
 243    4:40   77.3    34    0.3   359      1.5   962.9    0.00       0    85.4
 243    4:50   77.3    34    1.1   290      3.0   963.0    0.00       0    84.9
 243    5:00   77.8    32    3.1   296      5.1   963.1    0.00       0    84.9
 243    5:10   77.3    34    3.4   321      5.6   963.3    0.00       2    84.5
 243    5:20   77.5    34    2.8   311      5.6   963.4    0.00       6    84.5
 243    5:30   78.2    34    2.0   337      2.9   963.5    0.00      16    84.8
 243    5:40   78.5    33    1.9   342      3.1   963.6    0.00      35    85.2
 243    5:50   78.6    32    3.2   328      5.3   963.8    0.00      62    86.5
 243    6:00   79.5    32    3.6   349      6.7   964.1    0.00      89    87.5
 243    6:10   80.0    30    1.7   338      3.8   964.3    0.00     120    89.4
 243    6:20   81.0    30    2.8   298      5.3   964.5    0.00     150    91.3
 243    6:30   82.9    28    2.6   304      5.9   964.9    0.00     182    92.9
 243    6:40   84.0    29    2.6   323      3.8   965.2    0.00     214    93.8
 243    6:50   85.2    28    1.6   314      3.0   965.4    0.00     290    96.1
 243    7:00   87.1    28    1.8   344      3.1   965.6    0.00     290    96.7
 243    7:10   88.2    30    1.1   358      2.4   965.8    0.00     265    97.1
 243    7:20   91.0    31    3.5   161     15.0   966.0    0.00     448    102.4
 243    7:30   92.2    30    7.8   157     14.8   966.2    0.00     446    102.9
 243    7:40   92.1    30    6.9   160     14.0   966.4    0.00     288    101.6
 243    7:50   91.9    30    6.6   157     15.9   966.5    0.00     261    100.3
 243    8:00   92.3    29    9.1   176     17.7   966.4    0.00     372    101.8
 243    8:10   92.3    29    8.7   163     17.0   966.5    0.00     242    100.9
 243    8:20   92.3    29    8.8   170     17.6   966.5    0.00     405    101.8
 243    8:30   93.4    28    8.3   173     14.3   966.7    0.00     604    105.6
 243    8:40   94.0    28    7.5   178     14.5   966.7    0.00     633    107.1
 243    8:50   94.7    27    7.0   159     14.1   966.8    0.00     466    107.1
 243    9:00   95.3    26    6.4   155     11.9   967.0    0.00     716    108.9
 243    9:10   95.7    26    6.4   150     12.9   967.1    0.00     625    110.5
 243    9:20   95.4    26    7.4   144     17.0   967.2    0.00     570    109.7
 243    9:30   94.9    26    7.1   157     14.5   967.2    0.00     515    109.3
 243    9:40   95.6    26    7.8   157     16.4   967.2    0.00     747    111.7
 243    9:50   95.3    26    7.2   164     16.4   967.1    0.00     653    111.6
 243   10:00   95.5    26   11.0   180     18.6   967.0    0.00     827    113.3
 243   10:10   95.5    26   10.8   189     18.2   966.8    0.00     820    114.0
 243   10:20   96.0    25    9.1   187     15.4   966.7    0.00     813    114.2
 243   10:30   96.9    24   10.1   184     19.4   966.7    0.00     846    114.4
 243   10:40   96.5    24   11.2   178     20.5   966.7    0.00     866    114.1
 243   10:50   96.9    24    8.6   158     16.1   966.6    0.00     872    114.4
 243   11:00   97.5    23   10.0   180     17.8   966.5    0.00     863    114.7
 243   11:10   97.7    23    9.9   171     19.3   966.5    0.00     875    114.9
 243   11:20   98.3    22    9.0   160     18.3   966.4    0.00     896    114.8
 243   11:30   98.7    22   10.7   161     19.8   966.2    0.00     913    115.1
 243   11:40   99.2    22    8.8   150     20.1   966.1    0.00     921    115.1
 243   11:50   98.8    22    9.5   167     18.3   966.1    0.00     915    115.8
 243   12:00   99.5    20   11.2   170     21.5   965.8    0.00     893    116.0
 243   12:10   99.5    20   11.7   180     21.8   965.7    0.00     889    116.2
 243   12:20   99.8    20   12.1   168     22.6   965.5    0.00     886    115.5
 243   12:30  100.5    19   10.2   161     24.1   965.4    0.00     869    114.9
 243   12:40  100.5    19   13.3   177     24.0   965.3    0.00     886    114.1
 243   12:50  100.3    20   13.8   172     22.9   965.2    0.00     891    113.1
 243   13:00  100.3    21    9.9   150     21.0   965.2    0.00     719    111.4
 243   13:10  100.1    21   10.4   138     20.5   965.1    0.00     491    110.6
 243   13:20   99.9    20    7.5   144     16.4   964.8    0.00     444    110.5
 243   13:30  101.0    17   13.2   174     30.2   964.7    0.00     762    111.2
 243   13:40  100.9    16   12.1   158     26.6   964.7    0.00     760    110.6
 243   13:50  100.7    16   12.2   174     21.3   964.6    0.00     577    110.2
 243   14:00  101.3    14   14.0   180     25.1   964.4    0.00     754    110.5
 243   14:10  101.8    14   12.2   172     26.2   964.4    0.00     717    110.5
 243   14:20  101.5    14   13.4   176     23.2   964.3    0.00     707    110.2
 243   14:30  100.8    15   13.1   176     22.1   964.1    0.00     494    109.9
 243   14:40  101.4    15   13.0   170     21.2   963.9    0.00     655    109.9
 243   14:50  101.7    14   11.4   166     19.7   963.8    0.00     621    109.6

Return to Overton, Nevada graphs page.


Western Regional Climate Center,wrcc@dri.edu